sensor_id;sensor_type;location;lat;lon;timestamp;pressure;altitude;pressure_sealevel;temperature;humidity
63731;BME280;49747;51.334;6.830;2023-01-27T00:00:36;101754.63;;;6.34;82.46
63731;BME280;49747;51.334;6.830;2023-01-27T00:03:02;101754.50;;;6.37;82.39
63731;BME280;49747;51.334;6.830;2023-01-27T00:05:29;101743.16;;;6.35;83.20
63731;BME280;49747;51.334;6.830;2023-01-27T00:07:55;101749.41;;;6.32;83.72
63731;BME280;49747;51.334;6.830;2023-01-27T00:10:24;101735.38;;;6.30;83.12
63731;BME280;49747;51.334;6.830;2023-01-27T00:12:50;101749.41;;;6.32;83.14
63731;BME280;49747;51.334;6.830;2023-01-27T00:15:35;101757.13;;;6.37;83.46
63731;BME280;49747;51.334;6.830;2023-01-27T00:18:02;101739.81;;;6.30;83.29
63731;BME280;49747;51.334;6.830;2023-01-27T00:20:28;101738.16;;;6.27;83.64
63731;BME280;49747;51.334;6.830;2023-01-27T00:23:16;101747.91;;;6.25;83.93
63731;BME280;49747;51.334;6.830;2023-01-27T00:26:03;101754.00;;;6.51;83.58
63731;BME280;49747;51.334;6.830;2023-01-27T00:28:35;101753.16;;;6.49;83.44
63731;BME280;49747;51.334;6.830;2023-01-27T00:31:03;101754.28;;;6.43;83.75
63731;BME280;49747;51.334;6.830;2023-01-27T00:33:30;101751.19;;;6.32;84.14
63731;BME280;49747;51.334;6.830;2023-01-27T00:36:03;101748.66;;;6.29;84.19
63731;BME280;49747;51.334;6.830;2023-01-27T00:38:32;101760.22;;;6.48;83.34
63731;BME280;49747;51.334;6.830;2023-01-27T00:40:59;101752.31;;;6.48;82.83
63731;BME280;49747;51.334;6.830;2023-01-27T00:43:46;101754.84;;;6.51;81.71
63731;BME280;49747;51.334;6.830;2023-01-27T00:46:13;101762.59;;;6.56;82.08
63731;BME280;49747;51.334;6.830;2023-01-27T00:48:41;101763.47;;;6.33;82.63
63731;BME280;49747;51.334;6.830;2023-01-27T00:51:08;101760.13;;;6.51;81.55
63731;BME280;49747;51.334;6.830;2023-01-27T00:53:34;101751.38;;;6.49;81.41
63731;BME280;49747;51.334;6.830;2023-01-27T00:56:01;101758.97;;;6.58;80.93
63731;BME280;49747;51.334;6.830;2023-01-27T00:58:28;101765.44;;;6.50;81.42
63731;BME280;49747;51.334;6.830;2023-01-27T01:00:56;101762.47;;;6.59;80.88
63731;BME280;49747;51.334;6.830;2023-01-27T01:03:27;101765.09;;;6.59;80.64
63731;BME280;49747;51.334;6.830;2023-01-27T01:06:04;101768.22;;;6.47;81.58
63731;BME280;49747;51.334;6.830;2023-01-27T01:08:32;101770.69;;;6.51;81.29
63731;BME280;49747;51.334;6.830;2023-01-27T01:11:01;101770.88;;;6.47;80.80
63731;BME280;49747;51.334;6.830;2023-01-27T01:13:28;101774.94;;;6.32;81.21
63731;BME280;49747;51.334;6.830;2023-01-27T01:15:55;101773.44;;;6.25;80.66
63731;BME280;49747;51.334;6.830;2023-01-27T01:18:23;101779.09;;;6.14;81.40
63731;BME280;49747;51.334;6.830;2023-01-27T01:20:49;101775.56;;;6.38;80.89
63731;BME280;49747;51.334;6.830;2023-01-27T01:23:16;101789.91;;;6.31;81.12
63731;BME280;49747;51.334;6.830;2023-01-27T01:25:51;101788.91;;;6.34;81.09
63731;BME280;49747;51.334;6.830;2023-01-27T01:28:17;101784.63;;;6.31;81.44
63731;BME280;49747;51.334;6.830;2023-01-27T01:30:44;101789.00;;;6.32;81.21
63731;BME280;49747;51.334;6.830;2023-01-27T01:33:11;101786.72;;;6.23;81.69
63731;BME280;49747;51.334;6.830;2023-01-27T01:35:37;101784.44;;;6.12;82.08
63731;BME280;49747;51.334;6.830;2023-01-27T01:38:04;101792.91;;;5.97;82.52
63731;BME280;49747;51.334;6.830;2023-01-27T01:40:31;101800.72;;;6.00;82.83
63731;BME280;49747;51.334;6.830;2023-01-27T01:42:59;101807.28;;;6.13;82.82
63731;BME280;49747;51.334;6.830;2023-01-27T01:47:59;101804.34;;;6.21;82.50
63731;BME280;49747;51.334;6.830;2023-01-27T01:50:28;101813.66;;;6.31;82.23
63731;BME280;49747;51.334;6.830;2023-01-27T01:52:55;101807.34;;;6.12;83.24
63731;BME280;49747;51.334;6.830;2023-01-27T01:55:23;101801.78;;;6.20;83.00
63731;BME280;49747;51.334;6.830;2023-01-27T01:57:50;101802.28;;;6.06;83.13
63731;BME280;49747;51.334;6.830;2023-01-27T02:00:18;101804.69;;;6.12;83.13
63731;BME280;49747;51.334;6.830;2023-01-27T02:02:46;101810.47;;;6.23;82.80
63731;BME280;49747;51.334;6.830;2023-01-27T02:05:22;101811.69;;;6.13;83.19
63731;BME280;49747;51.334;6.830;2023-01-27T02:08:15;101785.75;;;6.01;83.48
63731;BME280;49747;51.334;6.830;2023-01-27T02:10:44;101808.47;;;6.05;83.00
63731;BME280;49747;51.334;6.830;2023-01-27T02:13:11;101793.78;;;5.98;83.42
63731;BME280;49747;51.334;6.830;2023-01-27T02:15:37;101810.09;;;6.09;83.48
63731;BME280;49747;51.334;6.830;2023-01-27T02:18:05;101803.19;;;6.05;83.19
63731;BME280;49747;51.334;6.830;2023-01-27T02:20:44;101812.44;;;6.16;83.39
63731;BME280;49747;51.334;6.830;2023-01-27T02:23:23;101814.16;;;6.17;83.50
63731;BME280;49747;51.334;6.830;2023-01-27T02:26:07;101826.03;;;6.06;84.41
63731;BME280;49747;51.334;6.830;2023-01-27T02:28:34;101822.31;;;6.11;83.87
63731;BME280;49747;51.334;6.830;2023-01-27T02:31:01;101818.59;;;5.92;85.21
63731;BME280;49747;51.334;6.830;2023-01-27T02:33:28;101827.31;;;5.94;85.09
63731;BME280;49747;51.334;6.830;2023-01-27T02:36:14;101828.13;;;5.69;84.37
63731;BME280;49747;51.334;6.830;2023-01-27T02:38:53;101831.25;;;5.56;84.28
63731;BME280;49747;51.334;6.830;2023-01-27T02:41:25;101839.50;;;5.72;83.68
63731;BME280;49747;51.334;6.830;2023-01-27T02:43:53;101836.47;;;5.57;84.15
63731;BME280;49747;51.334;6.830;2023-01-27T02:46:20;101844.22;;;5.62;83.89
63731;BME280;49747;51.334;6.830;2023-01-27T02:48:47;101833.72;;;5.60;83.89
63731;BME280;49747;51.334;6.830;2023-01-27T02:51:13;101836.47;;;5.57;83.93
63731;BME280;49747;51.334;6.830;2023-01-27T02:53:42;101831.19;;;5.57;83.93
63731;BME280;49747;51.334;6.830;2023-01-27T02:56:08;101841.22;;;5.73;82.93
63731;BME280;49747;51.334;6.830;2023-01-27T02:58:35;101846.09;;;5.58;83.93
63731;BME280;49747;51.334;6.830;2023-01-27T03:01:08;101841.06;;;5.77;82.56
63731;BME280;49747;51.334;6.830;2023-01-27T03:03:35;101845.56;;;5.74;82.22
63731;BME280;49747;51.334;6.830;2023-01-27T03:06:02;101844.38;;;5.57;82.08
63731;BME280;49747;51.334;6.830;2023-01-27T03:08:28;101848.47;;;5.66;81.95
63731;BME280;49747;51.334;6.830;2023-01-27T03:10:54;101835.53;;;5.58;81.70
63731;BME280;49747;51.334;6.830;2023-01-27T03:13:24;101852.63;;;5.73;82.24
63731;BME280;49747;51.334;6.830;2023-01-27T03:15:51;101839.44;;;5.73;81.98
63731;BME280;49747;51.334;6.830;2023-01-27T03:18:39;101857.53;;;5.84;81.28
63731;BME280;49747;51.334;6.830;2023-01-27T03:21:07;101861.56;;;5.69;82.02
63731;BME280;49747;51.334;6.830;2023-01-27T03:23:33;101846.50;;;5.73;81.85
63731;BME280;49747;51.334;6.830;2023-01-27T03:26:05;101850.31;;;5.64;82.91
63731;BME280;49747;51.334;6.830;2023-01-27T03:28:33;101848.28;;;5.72;82.42
63731;BME280;49747;51.334;6.830;2023-01-27T03:31:02;101845.53;;;5.75;82.91
63731;BME280;49747;51.334;6.830;2023-01-27T03:33:40;101840.88;;;5.83;82.49
63731;BME280;49747;51.334;6.830;2023-01-27T03:36:26;101853.22;;;5.81;83.23
63731;BME280;49747;51.334;6.830;2023-01-27T03:39:12;101843.13;;;5.94;82.44
63731;BME280;49747;51.334;6.830;2023-01-27T03:41:57;101844.03;;;5.95;81.93
63731;BME280;49747;51.334;6.830;2023-01-27T03:44:44;101842.56;;;5.84;82.88
63731;BME280;49747;51.334;6.830;2023-01-27T03:47:29;101847.56;;;5.93;82.95
63731;BME280;49747;51.334;6.830;2023-01-27T03:49:56;101857.53;;;5.84;84.00
63731;BME280;49747;51.334;6.830;2023-01-27T03:52:22;101855.88;;;5.81;84.51
63731;BME280;49747;51.334;6.830;2023-01-27T03:54:49;101862.16;;;5.77;85.00
63731;BME280;49747;51.334;6.830;2023-01-27T03:57:15;101852.38;;;5.81;84.78
63731;BME280;49747;51.334;6.830;2023-01-27T03:59:41;101861.38;;;5.75;85.52
63731;BME280;49747;51.334;6.830;2023-01-27T04:02:08;101843.84;;;5.73;85.60
63731;BME280;49747;51.334;6.830;2023-01-27T04:04:53;101861.47;;;5.72;86.21
63731;BME280;49747;51.334;6.830;2023-01-27T04:07:38;101839.31;;;5.51;86.93
63731;BME280;49747;51.334;6.830;2023-01-27T04:10:05;101849.88;;;5.76;86.21
63731;BME280;49747;51.334;6.830;2023-01-27T04:12:32;101841.03;;;5.52;87.49
63731;BME280;49747;51.334;6.830;2023-01-27T04:14:58;101845.66;;;5.46;88.68
63731;BME280;49747;51.334;6.830;2023-01-27T04:17:25;101854.81;;;5.60;88.52
63731;BME280;49747;51.334;6.830;2023-01-27T04:19:51;101851.34;;;5.60;88.48
63731;BME280;49747;51.334;6.830;2023-01-27T04:22:17;101850.47;;;5.59;88.76
63731;BME280;49747;51.334;6.830;2023-01-27T04:24:44;101848.28;;;5.46;89.90
63731;BME280;49747;51.334;6.830;2023-01-27T04:27:12;101855.47;;;5.40;90.50
63731;BME280;49747;51.334;6.830;2023-01-27T04:29:40;101851.84;;;5.44;90.56
63731;BME280;49747;51.334;6.830;2023-01-27T04:32:09;101854.97;;;5.29;91.69
63731;BME280;49747;51.334;6.830;2023-01-27T04:34:37;101856.13;;;5.21;92.12
63731;BME280;49747;51.334;6.830;2023-01-27T04:37:05;101863.06;;;5.23;92.38
63731;BME280;49747;51.334;6.830;2023-01-27T04:39:32;101856.97;;;5.21;92.53
63731;BME280;49747;51.334;6.830;2023-01-27T04:41:59;101862.06;;;5.27;92.06
63731;BME280;49747;51.334;6.830;2023-01-27T04:44:28;101862.94;;;5.28;92.53
63731;BME280;49747;51.334;6.830;2023-01-27T04:46:54;101863.78;;;5.28;92.47
63731;BME280;49747;51.334;6.830;2023-01-27T04:49:21;101863.97;;;5.22;93.47
63731;BME280;49747;51.334;6.830;2023-01-27T04:51:47;101871.28;;;5.40;92.25
63731;BME280;49747;51.334;6.830;2023-01-27T04:54:14;101850.78;;;5.22;93.02
63731;BME280;49747;51.334;6.830;2023-01-27T04:56:53;101855.72;;;5.33;92.97
63731;BME280;49747;51.334;6.830;2023-01-27T04:59:20;101870.78;;;5.29;93.28
63731;BME280;49747;51.334;6.830;2023-01-27T05:01:47;101874.78;;;5.41;93.26
63731;BME280;49747;51.334;6.830;2023-01-27T05:04:13;101866.19;;;5.36;93.06
63731;BME280;49747;51.334;6.830;2023-01-27T05:06:40;101862.63;;;5.37;93.21
63731;BME280;49747;51.334;6.830;2023-01-27T05:09:06;101869.66;;;5.36;93.94
63731;BME280;49747;51.334;6.830;2023-01-27T05:11:32;101868.03;;;5.32;93.80
63731;BME280;49747;51.334;6.830;2023-01-27T05:13:59;101871.38;;;5.37;94.21
63731;BME280;49747;51.334;6.830;2023-01-27T05:16:25;101872.97;;;5.43;93.55
63731;BME280;49747;51.334;6.830;2023-01-27T05:18:53;101856.69;;;5.30;93.79
63731;BME280;49747;51.334;6.830;2023-01-27T05:21:21;101873.56;;;5.25;94.36
63731;BME280;49747;51.334;6.830;2023-01-27T05:23:48;101873.41;;;5.29;94.18
63731;BME280;49747;51.334;6.830;2023-01-27T05:26:21;101881.91;;;5.39;93.84
63731;BME280;49747;51.334;6.830;2023-01-27T05:28:48;101867.34;;;5.27;94.19
63731;BME280;49747;51.334;6.830;2023-01-27T05:31:18;101883.31;;;5.49;93.47
63731;BME280;49747;51.334;6.830;2023-01-27T05:33:47;101861.09;;;5.30;93.83
63731;BME280;49747;51.334;6.830;2023-01-27T05:36:15;101883.97;;;5.56;93.27
63731;BME280;49747;51.334;6.830;2023-01-27T05:38:42;101870.22;;;5.46;92.93
63731;BME280;49747;51.334;6.830;2023-01-27T05:41:10;101891.06;;;5.54;93.07
63731;BME280;49747;51.334;6.830;2023-01-27T05:43:39;101891.31;;;5.46;93.54
63731;BME280;49747;51.334;6.830;2023-01-27T05:46:09;101891.28;;;5.48;93.14
63731;BME280;49747;51.334;6.830;2023-01-27T05:48:38;101892.94;;;5.50;92.99
63731;BME280;49747;51.334;6.830;2023-01-27T05:51:05;101887.56;;;5.53;92.49
63731;BME280;49747;51.334;6.830;2023-01-27T05:53:32;101900.91;;;5.49;92.91
63731;BME280;49747;51.334;6.830;2023-01-27T05:55:59;101889.41;;;5.51;92.56
63731;BME280;49747;51.334;6.830;2023-01-27T05:58:26;101896.31;;;5.55;92.86
63731;BME280;49747;51.334;6.830;2023-01-27T06:00:53;101890.66;;;5.66;91.87
63731;BME280;49747;51.334;6.830;2023-01-27T06:03:20;101888.16;;;5.61;91.90
63731;BME280;49747;51.334;6.830;2023-01-27T06:05:55;101883.31;;;5.49;92.72
63731;BME280;49747;51.334;6.830;2023-01-27T06:08:25;101893.09;;;5.46;92.54
63731;BME280;49747;51.334;6.830;2023-01-27T06:10:52;101889.16;;;5.59;91.86
63731;BME280;49747;51.334;6.830;2023-01-27T06:13:23;101889.44;;;5.50;92.32
63731;BME280;49747;51.334;6.830;2023-01-27T06:15:49;101888.06;;;5.64;92.02
63731;BME280;49747;51.334;6.830;2023-01-27T06:18:17;101889.84;;;5.64;92.04
63731;BME280;49747;51.334;6.830;2023-01-27T06:20:44;101896.75;;;5.68;91.74
63731;BME280;49747;51.334;6.830;2023-01-27T06:23:13;101902.13;;;5.65;91.79
63731;BME280;49747;51.334;6.830;2023-01-27T06:25:45;101902.38;;;5.84;90.98
63731;BME280;49747;51.334;6.830;2023-01-27T06:28:13;101895.84;;;5.69;91.36
63731;BME280;49747;51.334;6.830;2023-01-27T06:30:54;101896.59;;;5.73;91.10
63731;BME280;49747;51.334;6.830;2023-01-27T06:33:21;101905.69;;;5.90;90.06
63731;BME280;49747;51.334;6.830;2023-01-27T06:35:47;101883.13;;;5.55;90.85
63731;BME280;49747;51.334;6.830;2023-01-27T06:38:14;101909.44;;;5.83;90.01
63731;BME280;49747;51.334;6.830;2023-01-27T06:40:40;101915.59;;;5.82;90.42
63731;BME280;49747;51.334;6.830;2023-01-27T06:43:10;101914.88;;;5.77;90.16
63731;BME280;49747;51.334;6.830;2023-01-27T06:45:38;101921.50;;;5.90;89.41
63731;BME280;49747;51.334;6.830;2023-01-27T06:48:05;101922.63;;;5.83;89.60
63731;BME280;49747;51.334;6.830;2023-01-27T06:50:33;101934.59;;;5.67;89.93
63731;BME280;49747;51.334;6.830;2023-01-27T06:53:03;101935.50;;;5.92;88.93
63731;BME280;49747;51.334;6.830;2023-01-27T06:55:30;101924.41;;;5.83;88.89
63731;BME280;49747;51.334;6.830;2023-01-27T06:57:57;101929.28;;;5.95;88.30
63731;BME280;49747;51.334;6.830;2023-01-27T07:00:23;101940.22;;;5.83;89.33
63731;BME280;49747;51.334;6.830;2023-01-27T07:02:50;101938.09;;;5.94;89.41
63731;BME280;49747;51.334;6.830;2023-01-27T07:05:16;101938.75;;;6.01;87.89
63731;BME280;49747;51.334;6.830;2023-01-27T07:07:43;101931.09;;;5.93;88.00
63731;BME280;49747;51.334;6.830;2023-01-27T07:10:09;101941.56;;;5.96;87.88
63731;BME280;49747;51.334;6.830;2023-01-27T07:12:37;101933.31;;;6.05;86.91
63731;BME280;49747;51.334;6.830;2023-01-27T07:15:05;101947.38;;;6.06;86.91
63731;BME280;49747;51.334;6.830;2023-01-27T07:17:33;101944.47;;;6.13;86.60
63731;BME280;49747;51.334;6.830;2023-01-27T07:20:00;101957.50;;;6.18;86.59
63731;BME280;49747;51.334;6.830;2023-01-27T07:22:26;101959.13;;;6.22;86.26
63731;BME280;49747;51.334;6.830;2023-01-27T07:24:53;101962.59;;;6.24;86.04
63731;BME280;49747;51.334;6.830;2023-01-27T07:27:24;101955.78;;;6.17;86.10
63731;BME280;49747;51.334;6.830;2023-01-27T07:29:50;101962.91;;;6.15;86.60
63731;BME280;49747;51.334;6.830;2023-01-27T07:32:17;101955.75;;;6.19;86.76
63731;BME280;49747;51.334;6.830;2023-01-27T07:34:43;101954.25;;;6.10;87.26
63731;BME280;49747;51.334;6.830;2023-01-27T07:37:10;101964.47;;;6.21;87.34
63731;BME280;49747;51.334;6.830;2023-01-27T07:39:36;101968.19;;;6.15;87.26
63731;BME280;49747;51.334;6.830;2023-01-27T07:42:04;101947.44;;;6.04;87.99
63731;BME280;49747;51.334;6.830;2023-01-27T07:44:31;101963.19;;;6.06;87.92
63731;BME280;49747;51.334;6.830;2023-01-27T07:46:58;101957.81;;;6.09;87.75
63731;BME280;49747;51.334;6.830;2023-01-27T07:49:24;101960.69;;;6.03;88.71
63731;BME280;49747;51.334;6.830;2023-01-27T07:51:52;101970.34;;;6.02;88.09
63731;BME280;49747;51.334;6.830;2023-01-27T07:54:19;101969.56;;;6.00;88.60
63731;BME280;49747;51.334;6.830;2023-01-27T07:56:46;101974.56;;;6.08;88.37
63731;BME280;49747;51.334;6.830;2023-01-27T07:59:12;101986.19;;;6.02;88.56
63731;BME280;49747;51.334;6.830;2023-01-27T08:01:39;101984.88;;;6.15;87.97
63731;BME280;49747;51.334;6.830;2023-01-27T08:04:07;101976.53;;;6.01;88.39
63731;BME280;49747;51.334;6.830;2023-01-27T08:06:33;101970.22;;;6.07;88.54
63731;BME280;49747;51.334;6.830;2023-01-27T08:08:59;101987.66;;;6.11;87.89
63731;BME280;49747;51.334;6.830;2023-01-27T08:11:26;101979.50;;;6.19;87.75
63731;BME280;49747;51.334;6.830;2023-01-27T08:13:52;101988.75;;;6.30;87.35
63731;BME280;49747;51.334;6.830;2023-01-27T08:16:19;101967.16;;;6.19;87.04
63731;BME280;49747;51.334;6.830;2023-01-27T08:18:45;101985.91;;;6.36;86.62
63731;BME280;49747;51.334;6.830;2023-01-27T08:21:12;101989.94;;;6.22;87.18
63731;BME280;49747;51.334;6.830;2023-01-27T08:23:38;101984.63;;;6.23;87.54
63731;BME280;49747;51.334;6.830;2023-01-27T08:26:06;101987.84;;;6.31;87.24
63731;BME280;49747;51.334;6.830;2023-01-27T08:28:34;101984.09;;;6.38;87.32
63731;BME280;49747;51.334;6.830;2023-01-27T08:33:35;101972.88;;;6.32;87.25
63731;BME280;49747;51.334;6.830;2023-01-27T08:36:07;101972.66;;;6.38;86.85
63731;BME280;49747;51.334;6.830;2023-01-27T08:38:36;101976.59;;;6.51;86.73
63731;BME280;49747;51.334;6.830;2023-01-27T08:41:08;101984.09;;;6.38;86.99
63731;BME280;49747;51.334;6.830;2023-01-27T08:43:35;101972.44;;;6.44;86.55
63731;BME280;49747;51.334;6.830;2023-01-27T08:46:02;101981.66;;;6.57;86.22
63731;BME280;49747;51.334;6.830;2023-01-27T08:48:30;101970.28;;;6.55;85.94
63731;BME280;49747;51.334;6.830;2023-01-27T08:50:57;101985.13;;;6.59;86.11
63731;BME280;49747;51.334;6.830;2023-01-27T08:53:25;101982.56;;;6.56;86.08
63731;BME280;49747;51.334;6.830;2023-01-27T08:55:55;101979.19;;;6.53;86.50
63731;BME280;49747;51.334;6.830;2023-01-27T08:58:23;101972.19;;;6.52;86.01
63731;BME280;49747;51.334;6.830;2023-01-27T09:00:49;101985.66;;;6.44;87.26
63731;BME280;49747;51.334;6.830;2023-01-27T09:03:19;101992.47;;;6.50;87.27
63731;BME280;49747;51.334;6.830;2023-01-27T09:05:46;101988.78;;;6.55;86.78
63731;BME280;49747;51.334;6.830;2023-01-27T09:08:13;101987.25;;;6.48;86.75
63731;BME280;49747;51.334;6.830;2023-01-27T09:10:41;101995.56;;;6.62;86.56
63731;BME280;49747;51.334;6.830;2023-01-27T09:13:07;101977.78;;;6.43;87.25
63731;BME280;49747;51.334;6.830;2023-01-27T09:15:35;101994.06;;;6.55;87.40
63731;BME280;49747;51.334;6.830;2023-01-27T09:18:03;101998.19;;;6.37;87.72
63731;BME280;49747;51.334;6.830;2023-01-27T09:20:32;102013.56;;;6.51;87.37
63731;BME280;49747;51.334;6.830;2023-01-27T09:22:59;102028.56;;;6.49;86.91
63731;BME280;49747;51.334;6.830;2023-01-27T09:25:26;102024.97;;;6.52;87.54
63731;BME280;49747;51.334;6.830;2023-01-27T09:27:54;102032.06;;;6.50;87.43
63731;BME280;49747;51.334;6.830;2023-01-27T09:30:22;102027.78;;;6.47;87.37
63731;BME280;49747;51.334;6.830;2023-01-27T09:32:49;102028.84;;;6.41;87.98
63731;BME280;49747;51.334;6.830;2023-01-27T09:35:15;102026.97;;;6.45;87.85
63731;BME280;49747;51.334;6.830;2023-01-27T09:37:53;102026.16;;;6.43;88.11
63731;BME280;49747;51.334;6.830;2023-01-27T09:43:36;102039.78;;;6.31;89.01
63731;BME280;49747;51.334;6.830;2023-01-27T09:55:02;102040.47;;;8.66;100.00
63731;BME280;49747;51.334;6.830;2023-01-27T09:57:55;102036.56;;;7.90;84.28
63731;BME280;49747;51.334;6.830;2023-01-27T10:00:30;102039.53;;;7.59;84.82
63731;BME280;49747;51.334;6.830;2023-01-27T10:03:11;102045.31;;;7.47;85.83
63731;BME280;49747;51.334;6.830;2023-01-27T10:14:12;102030.47;;;6.96;88.14
63731;BME280;49747;51.334;6.830;2023-01-27T10:22:27;102031.31;;;6.96;88.99
63731;BME280;49747;51.334;6.830;2023-01-27T10:25:07;102029.50;;;6.98;89.20
63731;BME280;49747;51.334;6.830;2023-01-27T10:27:44;102028.75;;;6.95;88.94
63731;BME280;49747;51.334;6.830;2023-01-27T10:30:14;102035.97;;;6.89;89.46
63731;BME280;49747;51.334;6.830;2023-01-27T10:33:10;102036.34;;;7.04;89.11
63731;BME280;49747;51.334;6.830;2023-01-27T10:35:43;102033.91;;;6.98;88.85
63731;BME280;49747;51.334;6.830;2023-01-27T10:38:23;102028.31;;;7.07;88.55
63731;BME280;49747;51.334;6.830;2023-01-27T10:41:05;102027.72;;;6.99;88.58
63731;BME280;49747;51.334;6.830;2023-01-27T10:49:06;102036.69;;;6.95;88.35
63731;BME280;49747;51.334;6.830;2023-01-27T10:51:41;102039.63;;;6.85;87.96
63731;BME280;49747;51.334;6.830;2023-01-27T10:54:28;102030.84;;;6.85;88.39
63731;BME280;49747;51.334;6.830;2023-01-27T10:57:05;102013.13;;;6.63;88.78
63731;BME280;49747;51.334;6.830;2023-01-27T10:59:42;102034.47;;;6.82;89.24
63731;BME280;49747;51.334;6.830;2023-01-27T11:02:56;102020.66;;;6.74;89.30
63731;BME280;49747;51.334;6.830;2023-01-27T11:05:30;102015.28;;;6.77;88.43
63731;BME280;49747;51.334;6.830;2023-01-27T11:08:05;102014.41;;;6.77;88.23
63731;BME280;49747;51.334;6.830;2023-01-27T11:10:39;102015.69;;;6.66;89.02
63731;BME280;49747;51.334;6.830;2023-01-27T11:13:31;102004.91;;;6.46;89.50
63731;BME280;49747;51.334;6.830;2023-01-27T11:15:59;102007.59;;;6.71;89.05
63731;BME280;49747;51.334;6.830;2023-01-27T11:18:28;101999.09;;;6.61;89.69
63731;BME280;49747;51.334;6.830;2023-01-27T11:20:59;101979.31;;;6.73;89.14
63731;BME280;49747;51.334;6.830;2023-01-27T11:23:32;101996.19;;;6.69;89.54
63731;BME280;49747;51.334;6.830;2023-01-27T11:28:53;101999.72;;;6.93;88.21
63731;BME280;49747;51.334;6.830;2023-01-27T11:31:29;102001.09;;;6.80;88.28
63731;BME280;49747;51.334;6.830;2023-01-27T11:34:05;102007.75;;;6.66;89.62
63731;BME280;49747;51.334;6.830;2023-01-27T11:36:33;102013.47;;;7.26;100.00
63731;BME280;49747;51.334;6.830;2023-01-27T11:39:00;102012.19;;;6.89;94.28
63731;BME280;49747;51.334;6.830;2023-01-27T11:41:36;102022.16;;;6.81;91.54
63731;BME280;49747;51.334;6.830;2023-01-27T11:44:07;102011.97;;;6.96;90.01
63731;BME280;49747;51.334;6.830;2023-01-27T11:46:35;102012.28;;;7.11;89.02
63731;BME280;49747;51.334;6.830;2023-01-27T11:49:03;102008.91;;;6.83;88.79
63731;BME280;49747;51.334;6.830;2023-01-27T11:51:34;101996.88;;;6.99;87.78
63731;BME280;49747;51.334;6.830;2023-01-27T11:54:24;102014.38;;;7.02;88.05
63731;BME280;49747;51.334;6.830;2023-01-27T11:56:52;102001.06;;;7.05;87.37
63731;BME280;49747;51.334;6.830;2023-01-27T11:59:22;102004.72;;;7.01;87.60
63731;BME280;49747;51.334;6.830;2023-01-27T12:12:55;101992.34;;;7.03;86.50
63731;BME280;49747;51.334;6.830;2023-01-27T12:15:25;101991.06;;;7.13;86.36
63731;BME280;49747;51.334;6.830;2023-01-27T12:17:56;101987.34;;;6.95;86.77
63731;BME280;49747;51.334;6.830;2023-01-27T12:20:31;101996.16;;;6.94;86.12
63731;BME280;49747;51.334;6.830;2023-01-27T12:23:05;101996.78;;;7.02;85.58
63731;BME280;49747;51.334;6.830;2023-01-27T12:25:43;101992.53;;;6.98;85.69
63731;BME280;49747;51.334;6.830;2023-01-27T12:28:27;101996.91;;;6.98;85.44
63731;BME280;49747;51.334;6.830;2023-01-27T12:31:03;101990.88;;;6.94;85.16
63731;BME280;49747;51.334;6.830;2023-01-27T12:33:31;101989.88;;;6.98;84.49
63731;BME280;49747;51.334;6.830;2023-01-27T12:36:11;101991.06;;;6.89;84.60
63731;BME280;49747;51.334;6.830;2023-01-27T12:38:44;101998.00;;;6.92;83.80
63731;BME280;49747;51.334;6.830;2023-01-27T12:41:10;101975.72;;;6.76;84.62
63731;BME280;49747;51.334;6.830;2023-01-27T12:44:07;101983.41;;;7.05;83.86
63731;BME280;49747;51.334;6.830;2023-01-27T12:46:34;101983.31;;;7.08;83.52
63731;BME280;49747;51.334;6.830;2023-01-27T12:49:08;101971.50;;;6.95;83.75
63731;BME280;49747;51.334;6.830;2023-01-27T12:51:39;101981.50;;;7.10;83.26
63731;BME280;49747;51.334;6.830;2023-01-27T12:54:30;101983.25;;;7.10;82.69
63731;BME280;49747;51.334;6.830;2023-01-27T12:57:02;101984.91;;;7.12;82.93
63731;BME280;49747;51.334;6.830;2023-01-27T12:59:29;101976.91;;;7.14;82.88
63731;BME280;49747;51.334;6.830;2023-01-27T13:04:42;101971.66;;;6.90;82.72
63731;BME280;49747;51.334;6.830;2023-01-27T13:07:13;101985.78;;;7.13;82.35
63731;BME280;49747;51.334;6.830;2023-01-27T13:09:50;101984.56;;;7.22;82.00
63731;BME280;49747;51.334;6.830;2023-01-27T13:12:21;101970.38;;;7.01;82.27
63731;BME280;49747;51.334;6.830;2023-01-27T13:15:15;101987.63;;;6.87;81.94
63731;BME280;49747;51.334;6.830;2023-01-27T13:17:44;101991.88;;;7.15;81.59
63731;BME280;49747;51.334;6.830;2023-01-27T13:23:02;101993.69;;;7.13;80.90
63731;BME280;49747;51.334;6.830;2023-01-27T13:25:42;101995.56;;;7.11;79.79
63731;BME280;49747;51.334;6.830;2023-01-27T13:28:16;102001.41;;;7.19;78.54
63731;BME280;49747;51.334;6.830;2023-01-27T13:30:49;102001.41;;;7.19;77.96
63731;BME280;49747;51.334;6.830;2023-01-27T13:33:49;101998.88;;;7.16;77.86
63731;BME280;49747;51.334;6.830;2023-01-27T13:36:40;102004.75;;;7.24;77.96
63731;BME280;49747;51.334;6.830;2023-01-27T13:39:18;102010.09;;;7.23;77.50
63731;BME280;49747;51.334;6.830;2023-01-27T13:41:54;102003.03;;;7.23;77.19
63731;BME280;49747;51.334;6.830;2023-01-27T13:47:18;102008.03;;;7.31;77.20
63731;BME280;49747;51.334;6.830;2023-01-27T13:49:51;102015.09;;;7.30;78.24
63731;BME280;49747;51.334;6.830;2023-01-27T13:52:18;102019.81;;;7.22;78.29
63731;BME280;49747;51.334;6.830;2023-01-27T13:54:45;102014.44;;;7.24;76.83
63731;BME280;49747;51.334;6.830;2023-01-27T13:58:15;102018.88;;;7.23;76.06
63731;BME280;49747;51.334;6.830;2023-01-27T14:00:26;102016.06;;;7.28;76.13
63731;BME280;49747;51.334;6.830;2023-01-27T14:05:58;102028.53;;;7.24;76.36
63731;BME280;49747;51.334;6.830;2023-01-27T14:09:13;102016.91;;;7.28;76.34
63731;BME280;49747;51.334;6.830;2023-01-27T14:14:48;102019.06;;;7.42;75.40
63731;BME280;49747;51.334;6.830;2023-01-27T14:18:02;102019.84;;;7.44;75.81
63731;BME280;49747;51.334;6.830;2023-01-27T14:24:00;102014.75;;;7.16;77.51
63731;BME280;49747;51.334;6.830;2023-01-27T14:26:40;102015.31;;;7.24;76.39
63731;BME280;49747;51.334;6.830;2023-01-27T14:38:00;102017.78;;;7.05;77.46